sensor_id;sensor_type;location;lat;lon;timestamp;P1;durP1;ratioP1;P2;durP2;ratioP2
10896;SDS011;5501;51.176;6.470;2023-06-14T00:03:37;4.22;;;3.10;;
10896;SDS011;5501;51.176;6.470;2023-06-14T00:08:40;4.05;;;3.63;;
10896;SDS011;5501;51.176;6.470;2023-06-14T00:13:41;4.63;;;3.30;;
10896;SDS011;5501;51.176;6.470;2023-06-14T00:18:44;3.50;;;2.80;;
10896;SDS011;5501;51.176;6.470;2023-06-14T00:23:47;5.30;;;3.10;;
10896;SDS011;5501;51.176;6.470;2023-06-14T00:28:48;4.22;;;3.00;;
10896;SDS011;5501;51.176;6.470;2023-06-14T00:33:50;3.15;;;2.75;;
10896;SDS011;5501;51.176;6.470;2023-06-14T00:38:51;3.10;;;2.80;;
10896;SDS011;5501;51.176;6.470;2023-06-14T00:43:53;5.43;;;3.28;;
10896;SDS011;5501;51.176;6.470;2023-06-14T00:48:58;4.68;;;3.10;;
10896;SDS011;5501;51.176;6.470;2023-06-14T00:54:02;3.88;;;2.78;;
10896;SDS011;5501;51.176;6.470;2023-06-14T00:59:03;4.07;;;3.45;;
10896;SDS011;5501;51.176;6.470;2023-06-14T01:04:05;4.15;;;3.30;;
10896;SDS011;5501;51.176;6.470;2023-06-14T01:14:27;4.38;;;3.05;;
10896;SDS011;5501;51.176;6.470;2023-06-14T01:19:29;4.13;;;3.08;;
10896;SDS011;5501;51.176;6.470;2023-06-14T01:24:32;5.18;;;3.00;;
10896;SDS011;5501;51.176;6.470;2023-06-14T01:29:36;4.38;;;3.15;;
10896;SDS011;5501;51.176;6.470;2023-06-14T01:34:38;5.35;;;3.40;;
10896;SDS011;5501;51.176;6.470;2023-06-14T01:39:40;5.72;;;3.10;;
10896;SDS011;5501;51.176;6.470;2023-06-14T01:44:44;4.78;;;3.20;;
10896;SDS011;5501;51.176;6.470;2023-06-14T01:49:47;7.15;;;3.05;;
10896;SDS011;5501;51.176;6.470;2023-06-14T01:54:49;3.35;;;2.83;;
10896;SDS011;5501;51.176;6.470;2023-06-14T01:59:53;6.65;;;3.35;;
10896;SDS011;5501;51.176;6.470;2023-06-14T02:04:54;5.70;;;3.40;;
10896;SDS011;5501;51.176;6.470;2023-06-14T02:09:58;4.18;;;3.38;;
10896;SDS011;5501;51.176;6.470;2023-06-14T02:15:00;4.78;;;3.30;;
10896;SDS011;5501;51.176;6.470;2023-06-14T02:20:02;5.90;;;3.58;;
10896;SDS011;5501;51.176;6.470;2023-06-14T02:25:06;5.28;;;3.50;;
10896;SDS011;5501;51.176;6.470;2023-06-14T02:30:08;5.30;;;3.30;;
10896;SDS011;5501;51.176;6.470;2023-06-14T02:35:10;3.28;;;2.85;;
10896;SDS011;5501;51.176;6.470;2023-06-14T02:40:12;4.65;;;3.10;;
10896;SDS011;5501;51.176;6.470;2023-06-14T02:45:14;6.05;;;3.15;;
10896;SDS011;5501;51.176;6.470;2023-06-14T02:50:16;3.97;;;3.22;;
10896;SDS011;5501;51.176;6.470;2023-06-14T02:55:18;5.03;;;3.30;;
10896;SDS011;5501;51.176;6.470;2023-06-14T03:00:20;4.78;;;3.35;;
10896;SDS011;5501;51.176;6.470;2023-06-14T03:05:22;6.25;;;3.75;;
10896;SDS011;5501;51.176;6.470;2023-06-14T03:10:25;3.83;;;3.22;;
10896;SDS011;5501;51.176;6.470;2023-06-14T03:15:31;4.90;;;3.30;;
10896;SDS011;5501;51.176;6.470;2023-06-14T03:20:35;4.47;;;3.40;;
10896;SDS011;5501;51.176;6.470;2023-06-14T03:25:37;5.57;;;3.47;;
10896;SDS011;5501;51.176;6.470;2023-06-14T03:30:40;4.05;;;3.30;;
10896;SDS011;5501;51.176;6.470;2023-06-14T03:35:43;4.45;;;3.78;;
10896;SDS011;5501;51.176;6.470;2023-06-14T03:40:45;4.25;;;2.92;;
10896;SDS011;5501;51.176;6.470;2023-06-14T03:45:46;5.95;;;3.75;;
10896;SDS011;5501;51.176;6.470;2023-06-14T03:50:48;5.72;;;3.90;;
10896;SDS011;5501;51.176;6.470;2023-06-14T03:55:50;6.72;;;3.65;;
10896;SDS011;5501;51.176;6.470;2023-06-14T04:01:00;3.33;;;2.70;;
10896;SDS011;5501;51.176;6.470;2023-06-14T04:06:04;4.72;;;3.28;;
10896;SDS011;5501;51.176;6.470;2023-06-14T04:11:06;4.38;;;3.38;;
10896;SDS011;5501;51.176;6.470;2023-06-14T04:16:08;6.40;;;3.63;;
10896;SDS011;5501;51.176;6.470;2023-06-14T04:21:10;4.63;;;3.20;;
10896;SDS011;5501;51.176;6.470;2023-06-14T04:26:12;4.80;;;2.90;;
10896;SDS011;5501;51.176;6.470;2023-06-14T04:31:15;11.00;;;3.72;;
10896;SDS011;5501;51.176;6.470;2023-06-14T04:36:19;3.47;;;2.88;;
10896;SDS011;5501;51.176;6.470;2023-06-14T04:41:22;6.28;;;3.38;;
10896;SDS011;5501;51.176;6.470;2023-06-14T04:46:30;3.45;;;2.80;;
10896;SDS011;5501;51.176;6.470;2023-06-14T04:51:33;3.55;;;2.78;;
10896;SDS011;5501;51.176;6.470;2023-06-14T04:56:36;6.47;;;3.42;;
10896;SDS011;5501;51.176;6.470;2023-06-14T05:01:39;8.23;;;3.17;;
10896;SDS011;5501;51.176;6.470;2023-06-14T05:06:41;4.93;;;2.67;;
10896;SDS011;5501;51.176;6.470;2023-06-14T05:11:46;5.90;;;2.88;;
10896;SDS011;5501;51.176;6.470;2023-06-14T05:16:48;4.93;;;3.20;;
10896;SDS011;5501;51.176;6.470;2023-06-14T05:21:50;4.50;;;3.17;;
10896;SDS011;5501;51.176;6.470;2023-06-14T05:26:52;4.60;;;3.25;;
10896;SDS011;5501;51.176;6.470;2023-06-14T05:31:53;3.65;;;2.95;;
10896;SDS011;5501;51.176;6.470;2023-06-14T05:36:55;3.75;;;2.83;;
10896;SDS011;5501;51.176;6.470;2023-06-14T05:41:57;3.47;;;2.90;;
10896;SDS011;5501;51.176;6.470;2023-06-14T05:46:58;3.42;;;2.70;;
10896;SDS011;5501;51.176;6.470;2023-06-14T05:52:00;4.30;;;2.75;;
10896;SDS011;5501;51.176;6.470;2023-06-14T05:57:02;4.47;;;3.03;;
10896;SDS011;5501;51.176;6.470;2023-06-14T06:02:05;3.78;;;2.45;;
10896;SDS011;5501;51.176;6.470;2023-06-14T06:07:07;8.88;;;3.15;;
10896;SDS011;5501;51.176;6.470;2023-06-14T06:12:09;3.05;;;2.53;;
10896;SDS011;5501;51.176;6.470;2023-06-14T06:17:11;4.53;;;2.63;;
10896;SDS011;5501;51.176;6.470;2023-06-14T06:22:13;2.95;;;2.42;;
10896;SDS011;5501;51.176;6.470;2023-06-14T06:27:14;4.43;;;2.70;;
10896;SDS011;5501;51.176;6.470;2023-06-14T06:32:17;5.65;;;2.50;;
10896;SDS011;5501;51.176;6.470;2023-06-14T06:37:19;4.03;;;2.63;;
10896;SDS011;5501;51.176;6.470;2023-06-14T06:42:20;5.15;;;2.40;;
10896;SDS011;5501;51.176;6.470;2023-06-14T06:47:24;3.17;;;2.47;;
10896;SDS011;5501;51.176;6.470;2023-06-14T06:52:26;2.65;;;2.03;;
10896;SDS011;5501;51.176;6.470;2023-06-14T06:57:27;6.45;;;2.30;;
10896;SDS011;5501;51.176;6.470;2023-06-14T07:02:30;6.05;;;2.95;;
10896;SDS011;5501;51.176;6.470;2023-06-14T07:07:32;3.78;;;2.33;;
10896;SDS011;5501;51.176;6.470;2023-06-14T07:12:33;2.85;;;2.10;;
10896;SDS011;5501;51.176;6.470;2023-06-14T07:17:40;3.60;;;2.72;;
10896;SDS011;5501;51.176;6.470;2023-06-14T07:22:42;2.72;;;2.20;;
10896;SDS011;5501;51.176;6.470;2023-06-14T07:27:44;3.85;;;2.03;;
10896;SDS011;5501;51.176;6.470;2023-06-14T07:32:47;3.30;;;2.15;;
10896;SDS011;5501;51.176;6.470;2023-06-14T07:37:50;4.47;;;2.10;;
10896;SDS011;5501;51.176;6.470;2023-06-14T07:42:52;3.63;;;2.05;;
10896;SDS011;5501;51.176;6.470;2023-06-14T07:47:55;3.08;;;1.88;;
10896;SDS011;5501;51.176;6.470;2023-06-14T07:52:57;1.65;;;1.55;;
10896;SDS011;5501;51.176;6.470;2023-06-14T07:57:59;3.65;;;1.65;;
10896;SDS011;5501;51.176;6.470;2023-06-14T08:03:00;2.95;;;1.55;;
10896;SDS011;5501;51.176;6.470;2023-06-14T08:08:02;2.35;;;1.50;;
10896;SDS011;5501;51.176;6.470;2023-06-14T08:13:04;1.45;;;1.10;;
10896;SDS011;5501;51.176;6.470;2023-06-14T08:18:05;2.25;;;1.10;;
10896;SDS011;5501;51.176;6.470;2023-06-14T08:23:07;1.88;;;1.10;;
10896;SDS011;5501;51.176;6.470;2023-06-14T08:28:10;1.88;;;1.00;;
10896;SDS011;5501;51.176;6.470;2023-06-14T08:33:11;1.35;;;1.02;;
10896;SDS011;5501;51.176;6.470;2023-06-14T08:38:17;0.98;;;0.98;;
10896;SDS011;5501;51.176;6.470;2023-06-14T08:43:19;2.28;;;1.10;;
10896;SDS011;5501;51.176;6.470;2023-06-14T08:48:21;1.67;;;1.15;;
10896;SDS011;5501;51.176;6.470;2023-06-14T08:53:26;4.15;;;1.95;;
10896;SDS011;5501;51.176;6.470;2023-06-14T08:58:30;2.00;;;1.20;;
10896;SDS011;5501;51.176;6.470;2023-06-14T09:03:32;1.40;;;1.10;;
10896;SDS011;5501;51.176;6.470;2023-06-14T09:08:34;1.30;;;1.10;;
10896;SDS011;5501;51.176;6.470;2023-06-14T09:13:36;4.03;;;1.20;;
10896;SDS011;5501;51.176;6.470;2023-06-14T09:18:39;1.50;;;1.08;;
10896;SDS011;5501;51.176;6.470;2023-06-14T09:23:45;1.30;;;1.20;;
10896;SDS011;5501;51.176;6.470;2023-06-14T09:28:49;1.25;;;1.13;;
10896;SDS011;5501;51.176;6.470;2023-06-14T09:33:51;3.33;;;1.33;;
10896;SDS011;5501;51.176;6.470;2023-06-14T09:38:58;1.30;;;1.17;;
10896;SDS011;5501;51.176;6.470;2023-06-14T09:44:02;1.65;;;1.20;;
10896;SDS011;5501;51.176;6.470;2023-06-14T09:49:10;2.55;;;1.10;;
10896;SDS011;5501;51.176;6.470;2023-06-14T09:54:15;2.92;;;1.30;;
10896;SDS011;5501;51.176;6.470;2023-06-14T09:59:21;1.20;;;0.90;;
10896;SDS011;5501;51.176;6.470;2023-06-14T10:04:30;1.70;;;1.30;;
10896;SDS011;5501;51.176;6.470;2023-06-14T10:09:34;2.13;;;1.30;;
10896;SDS011;5501;51.176;6.470;2023-06-14T10:14:36;1.52;;;1.02;;
10896;SDS011;5501;51.176;6.470;2023-06-14T10:19:42;3.05;;;1.20;;
10896;SDS011;5501;51.176;6.470;2023-06-14T10:24:52;3.13;;;1.30;;
10896;SDS011;5501;51.176;6.470;2023-06-14T10:35:04;1.38;;;1.27;;
10896;SDS011;5501;51.176;6.470;2023-06-14T10:40:08;1.95;;;1.40;;
10896;SDS011;5501;51.176;6.470;2023-06-14T10:45:10;3.38;;;1.20;;
10896;SDS011;5501;51.176;6.470;2023-06-14T10:50:14;1.73;;;1.25;;
10896;SDS011;5501;51.176;6.470;2023-06-14T10:55:17;3.38;;;1.50;;
10896;SDS011;5501;51.176;6.470;2023-06-14T11:00:22;1.30;;;1.20;;
10896;SDS011;5501;51.176;6.470;2023-06-14T11:05:25;1.60;;;1.05;;
10896;SDS011;5501;51.176;6.470;2023-06-14T11:10:38;1.67;;;1.10;;
10896;SDS011;5501;51.176;6.470;2023-06-14T11:15:43;4.35;;;1.30;;
10896;SDS011;5501;51.176;6.470;2023-06-14T11:20:47;1.23;;;1.05;;
10896;SDS011;5501;51.176;6.470;2023-06-14T11:25:52;3.15;;;1.25;;
10896;SDS011;5501;51.176;6.470;2023-06-14T11:31:00;1.83;;;1.27;;
10896;SDS011;5501;51.176;6.470;2023-06-14T11:36:03;3.38;;;1.27;;
10896;SDS011;5501;51.176;6.470;2023-06-14T11:41:06;1.25;;;1.00;;
10896;SDS011;5501;51.176;6.470;2023-06-14T11:46:14;1.60;;;1.20;;
10896;SDS011;5501;51.176;6.470;2023-06-14T11:56:19;2.40;;;1.30;;
10896;SDS011;5501;51.176;6.470;2023-06-14T12:01:21;2.28;;;1.00;;
10896;SDS011;5501;51.176;6.470;2023-06-14T12:06:30;1.92;;;1.10;;
10896;SDS011;5501;51.176;6.470;2023-06-14T12:11:37;3.03;;;1.10;;
10896;SDS011;5501;51.176;6.470;2023-06-14T12:16:40;1.60;;;1.20;;
10896;SDS011;5501;51.176;6.470;2023-06-14T12:21:47;4.15;;;1.30;;
10896;SDS011;5501;51.176;6.470;2023-06-14T12:26:53;1.30;;;1.20;;
10896;SDS011;5501;51.176;6.470;2023-06-14T12:31:55;1.95;;;1.23;;
10896;SDS011;5501;51.176;6.470;2023-06-14T12:36:58;1.63;;;1.20;;
10896;SDS011;5501;51.176;6.470;2023-06-14T12:41:59;1.95;;;1.17;;
10896;SDS011;5501;51.176;6.470;2023-06-14T12:47:01;1.27;;;1.13;;
10896;SDS011;5501;51.176;6.470;2023-06-14T12:52:02;1.30;;;1.20;;
10896;SDS011;5501;51.176;6.470;2023-06-14T12:57:04;1.38;;;1.20;;
10896;SDS011;5501;51.176;6.470;2023-06-14T13:02:13;2.63;;;1.10;;
10896;SDS011;5501;51.176;6.470;2023-06-14T13:07:15;2.13;;;1.13;;
10896;SDS011;5501;51.176;6.470;2023-06-14T13:12:18;1.30;;;1.20;;
10896;SDS011;5501;51.176;6.470;2023-06-14T13:17:19;1.50;;;1.40;;
10896;SDS011;5501;51.176;6.470;2023-06-14T13:22:21;1.83;;;1.00;;
10896;SDS011;5501;51.176;6.470;2023-06-14T13:27:22;2.25;;;1.15;;
10896;SDS011;5501;51.176;6.470;2023-06-14T13:32:25;1.55;;;1.02;;
10896;SDS011;5501;51.176;6.470;2023-06-14T13:37:27;1.33;;;1.13;;
10896;SDS011;5501;51.176;6.470;2023-06-14T13:42:29;1.20;;;1.10;;
10896;SDS011;5501;51.176;6.470;2023-06-14T13:47:32;4.60;;;1.10;;
10896;SDS011;5501;51.176;6.470;2023-06-14T13:52:34;1.00;;;0.90;;
10896;SDS011;5501;51.176;6.470;2023-06-14T13:57:36;1.10;;;1.00;;
10896;SDS011;5501;51.176;6.470;2023-06-14T14:02:37;1.65;;;1.00;;
10896;SDS011;5501;51.176;6.470;2023-06-14T14:07:41;1.00;;;1.00;;
10896;SDS011;5501;51.176;6.470;2023-06-14T14:12:42;1.17;;;1.02;;
10896;SDS011;5501;51.176;6.470;2023-06-14T14:17:44;1.73;;;1.15;;
10896;SDS011;5501;51.176;6.470;2023-06-14T14:22:46;2.85;;;1.52;;
10896;SDS011;5501;51.176;6.470;2023-06-14T14:27:47;1.25;;;1.15;;
10896;SDS011;5501;51.176;6.470;2023-06-14T14:32:49;1.00;;;1.00;;
10896;SDS011;5501;51.176;6.470;2023-06-14T14:37:52;1.27;;;1.13;;
10896;SDS011;5501;51.176;6.470;2023-06-14T14:42:53;1.50;;;1.10;;
10896;SDS011;5501;51.176;6.470;2023-06-14T14:47:55;1.25;;;1.10;;
10896;SDS011;5501;51.176;6.470;2023-06-14T14:52:57;1.75;;;1.48;;
10896;SDS011;5501;51.176;6.470;2023-06-14T14:57:58;1.30;;;1.20;;
10896;SDS011;5501;51.176;6.470;2023-06-14T15:03:00;2.22;;;1.65;;
10896;SDS011;5501;51.176;6.470;2023-06-14T15:08:01;1.30;;;1.20;;
10896;SDS011;5501;51.176;6.470;2023-06-14T15:13:03;1.92;;;1.13;;
10896;SDS011;5501;51.176;6.470;2023-06-14T15:18:05;1.70;;;1.60;;
10896;SDS011;5501;51.176;6.470;2023-06-14T15:23:06;6.03;;;1.27;;
10896;SDS011;5501;51.176;6.470;2023-06-14T15:28:08;2.28;;;1.30;;
10896;SDS011;5501;51.176;6.470;2023-06-14T15:33:11;1.80;;;1.23;;
10896;SDS011;5501;51.176;6.470;2023-06-14T15:38:12;16.80;;;1.70;;
10896;SDS011;5501;51.176;6.470;2023-06-14T15:43:14;1.50;;;1.40;;
10896;SDS011;5501;51.176;6.470;2023-06-14T15:48:15;1.40;;;1.30;;
10896;SDS011;5501;51.176;6.470;2023-06-14T15:53:18;1.30;;;1.20;;
10896;SDS011;5501;51.176;6.470;2023-06-14T15:58:20;4.80;;;1.88;;
10896;SDS011;5501;51.176;6.470;2023-06-14T16:03:23;1.40;;;1.30;;
10896;SDS011;5501;51.176;6.470;2023-06-14T16:08:25;1.27;;;1.17;;
10896;SDS011;5501;51.176;6.470;2023-06-14T16:13:41;3.30;;;1.48;;
10896;SDS011;5501;51.176;6.470;2023-06-14T16:18:43;1.48;;;1.23;;
10896;SDS011;5501;51.176;6.470;2023-06-14T16:23:45;1.90;;;1.60;;
10896;SDS011;5501;51.176;6.470;2023-06-14T16:28:46;1.70;;;1.52;;
10896;SDS011;5501;51.176;6.470;2023-06-14T16:33:48;1.52;;;1.30;;
10896;SDS011;5501;51.176;6.470;2023-06-14T16:38:55;5.43;;;1.40;;
10896;SDS011;5501;51.176;6.470;2023-06-14T16:43:58;1.80;;;1.50;;
10896;SDS011;5501;51.176;6.470;2023-06-14T16:49:00;1.40;;;1.30;;
10896;SDS011;5501;51.176;6.470;2023-06-14T16:54:02;1.58;;;1.38;;
10896;SDS011;5501;51.176;6.470;2023-06-14T16:59:04;1.50;;;1.40;;
10896;SDS011;5501;51.176;6.470;2023-06-14T17:04:06;1.73;;;1.38;;
10896;SDS011;5501;51.176;6.470;2023-06-14T17:09:08;1.38;;;1.27;;
10896;SDS011;5501;51.176;6.470;2023-06-14T17:14:09;2.10;;;1.67;;
10896;SDS011;5501;51.176;6.470;2023-06-14T17:19:13;5.78;;;1.67;;
10896;SDS011;5501;51.176;6.470;2023-06-14T17:24:15;2.13;;;1.50;;
10896;SDS011;5501;51.176;6.470;2023-06-14T17:29:26;1.60;;;1.50;;
10896;SDS011;5501;51.176;6.470;2023-06-14T17:34:27;4.07;;;1.40;;
10896;SDS011;5501;51.176;6.470;2023-06-14T17:39:29;2.95;;;1.40;;
10896;SDS011;5501;51.176;6.470;2023-06-14T17:44:30;2.95;;;1.70;;
10896;SDS011;5501;51.176;6.470;2023-06-14T17:49:32;6.85;;;1.63;;
10896;SDS011;5501;51.176;6.470;2023-06-14T17:54:33;1.52;;;1.42;;
10896;SDS011;5501;51.176;6.470;2023-06-14T17:59:35;4.15;;;1.60;;
10896;SDS011;5501;51.176;6.470;2023-06-14T18:04:37;1.98;;;1.50;;
10896;SDS011;5501;51.176;6.470;2023-06-14T18:09:38;2.15;;;1.52;;
10896;SDS011;5501;51.176;6.470;2023-06-14T18:14:40;1.88;;;1.50;;
10896;SDS011;5501;51.176;6.470;2023-06-14T18:19:41;1.95;;;1.42;;
10896;SDS011;5501;51.176;6.470;2023-06-14T18:24:43;7.20;;;1.60;;
10896;SDS011;5501;51.176;6.470;2023-06-14T18:29:44;2.00;;;1.50;;
10896;SDS011;5501;51.176;6.470;2023-06-14T18:34:48;3.83;;;1.92;;
10896;SDS011;5501;51.176;6.470;2023-06-14T18:39:50;2.05;;;1.40;;
10896;SDS011;5501;51.176;6.470;2023-06-14T18:44:52;3.10;;;1.48;;
10896;SDS011;5501;51.176;6.470;2023-06-14T18:49:53;3.20;;;1.85;;
10896;SDS011;5501;51.176;6.470;2023-06-14T18:54:55;6.40;;;2.05;;
10896;SDS011;5501;51.176;6.470;2023-06-14T18:59:57;3.45;;;1.63;;
10896;SDS011;5501;51.176;6.470;2023-06-14T19:04:58;1.30;;;1.20;;
10896;SDS011;5501;51.176;6.470;2023-06-14T19:10:00;1.95;;;1.60;;
10896;SDS011;5501;51.176;6.470;2023-06-14T19:15:01;1.77;;;1.20;;
10896;SDS011;5501;51.176;6.470;2023-06-14T19:20:06;3.65;;;1.50;;
10896;SDS011;5501;51.176;6.470;2023-06-14T19:25:09;6.97;;;1.52;;
10896;SDS011;5501;51.176;6.470;2023-06-14T19:30:10;2.42;;;1.55;;
10896;SDS011;5501;51.176;6.470;2023-06-14T19:35:13;1.95;;;1.35;;
10896;SDS011;5501;51.176;6.470;2023-06-14T19:40:15;2.63;;;1.40;;
10896;SDS011;5501;51.176;6.470;2023-06-14T19:45:17;1.75;;;1.42;;
10896;SDS011;5501;51.176;6.470;2023-06-14T19:50:19;1.85;;;1.27;;
10896;SDS011;5501;51.176;6.470;2023-06-14T19:55:21;1.30;;;1.15;;
10896;SDS011;5501;51.176;6.470;2023-06-14T20:00:22;1.55;;;1.45;;
10896;SDS011;5501;51.176;6.470;2023-06-14T20:05:24;1.33;;;1.23;;
10896;SDS011;5501;51.176;6.470;2023-06-14T20:10:25;2.30;;;1.20;;
10896;SDS011;5501;51.176;6.470;2023-06-14T20:15:27;1.90;;;1.52;;
10896;SDS011;5501;51.176;6.470;2023-06-14T20:20:28;1.90;;;1.38;;
10896;SDS011;5501;51.176;6.470;2023-06-14T20:25:30;2.47;;;1.40;;
10896;SDS011;5501;51.176;6.470;2023-06-14T20:30:31;2.13;;;1.33;;
10896;SDS011;5501;51.176;6.470;2023-06-14T20:35:33;1.75;;;1.65;;
10896;SDS011;5501;51.176;6.470;2023-06-14T20:40:34;1.50;;;1.35;;
10896;SDS011;5501;51.176;6.470;2023-06-14T20:45:39;3.83;;;1.60;;
10896;SDS011;5501;51.176;6.470;2023-06-14T20:50:40;1.25;;;1.15;;
10896;SDS011;5501;51.176;6.470;2023-06-14T20:55:42;8.35;;;1.67;;
10896;SDS011;5501;51.176;6.470;2023-06-14T21:00:43;1.27;;;1.17;;
10896;SDS011;5501;51.176;6.470;2023-06-14T21:05:48;5.40;;;1.50;;
10896;SDS011;5501;51.176;6.470;2023-06-14T21:10:49;1.17;;;1.08;;
10896;SDS011;5501;51.176;6.470;2023-06-14T21:15:51;1.60;;;1.42;;
10896;SDS011;5501;51.176;6.470;2023-06-14T21:20:53;1.50;;;1.40;;
10896;SDS011;5501;51.176;6.470;2023-06-14T21:25:54;1.60;;;1.50;;
10896;SDS011;5501;51.176;6.470;2023-06-14T21:30:55;2.00;;;1.55;;
10896;SDS011;5501;51.176;6.470;2023-06-14T21:35:57;1.67;;;1.58;;
10896;SDS011;5501;51.176;6.470;2023-06-14T21:40:59;3.75;;;1.58;;
10896;SDS011;5501;51.176;6.470;2023-06-14T21:46:00;5.32;;;1.35;;
10896;SDS011;5501;51.176;6.470;2023-06-14T21:51:01;4.57;;;1.52;;
10896;SDS011;5501;51.176;6.470;2023-06-14T21:56:03;2.97;;;1.25;;
10896;SDS011;5501;51.176;6.470;2023-06-14T22:01:05;2.03;;;1.50;;
10896;SDS011;5501;51.176;6.470;2023-06-14T22:06:06;2.30;;;1.40;;
10896;SDS011;5501;51.176;6.470;2023-06-14T22:11:08;4.10;;;1.58;;
10896;SDS011;5501;51.176;6.470;2023-06-14T22:16:11;1.40;;;1.30;;
10896;SDS011;5501;51.176;6.470;2023-06-14T22:21:14;1.30;;;1.20;;
10896;SDS011;5501;51.176;6.470;2023-06-14T22:26:16;2.40;;;1.30;;
10896;SDS011;5501;51.176;6.470;2023-06-14T22:31:36;1.42;;;1.33;;
10896;SDS011;5501;51.176;6.470;2023-06-14T22:36:38;2.08;;;1.55;;
10896;SDS011;5501;51.176;6.470;2023-06-14T22:41:41;1.85;;;1.55;;
10896;SDS011;5501;51.176;6.470;2023-06-14T22:46:43;1.63;;;1.52;;
10896;SDS011;5501;51.176;6.470;2023-06-14T22:51:45;2.22;;;1.48;;
10896;SDS011;5501;51.176;6.470;2023-06-14T22:56:47;4.88;;;1.50;;
10896;SDS011;5501;51.176;6.470;2023-06-14T23:01:48;2.40;;;1.60;;
10896;SDS011;5501;51.176;6.470;2023-06-14T23:06:51;1.92;;;1.48;;
10896;SDS011;5501;51.176;6.470;2023-06-14T23:11:53;1.73;;;1.50;;
10896;SDS011;5501;51.176;6.470;2023-06-14T23:16:54;1.67;;;1.50;;
10896;SDS011;5501;51.176;6.470;2023-06-14T23:21:56;1.67;;;1.42;;
10896;SDS011;5501;51.176;6.470;2023-06-14T23:27:00;4.72;;;1.55;;
10896;SDS011;5501;51.176;6.470;2023-06-14T23:32:02;2.58;;;1.60;;
10896;SDS011;5501;51.176;6.470;2023-06-14T23:37:05;2.55;;;1.52;;
10896;SDS011;5501;51.176;6.470;2023-06-14T23:42:07;2.45;;;2.08;;
10896;SDS011;5501;51.176;6.470;2023-06-14T23:47:09;1.80;;;1.35;;
10896;SDS011;5501;51.176;6.470;2023-06-14T23:52:12;2.90;;;1.75;;
10896;SDS011;5501;51.176;6.470;2023-06-14T23:57:15;2.35;;;1.70;;
